Time;durP1;ratioP1;P1;durP2;ratioP2;P2;SDS_P1;SDS_P2;PMS_P1;PMS_P2;Temp;Humidity;BMP_temperature;BMP_pressure;BME280_temperature;BME280_humidity;BME280_pressure;Samples;Min_cycle;Max_cycle;Signal;HPM_P1;HPM_P2
2024/03/20 00:00:45;;;;;;;41.30;23.73;;;1.40;99.90;;;;;;4953259;29;20110;-84
2024/03/20 00:03:11;;;;;;;29.70;21.67;;;1.40;99.90;;;;;;4953421;29;20118;-84
2024/03/20 00:05:37;;;;;;;37.15;22.08;;;1.40;99.90;;;;;;4953743;29;20031;-82
2024/03/20 00:08:04;;;;;;;42.15;20.98;;;1.40;99.90;;;;;;4954133;28;20031;-83
2024/03/20 00:10:31;;;;;;;30.83;20.10;;;1.40;99.90;;;;;;4955111;28;20049;-83
2024/03/20 00:12:57;;;;;;;33.90;20.60;;;1.30;99.90;;;;;;4954197;29;20023;-81
2024/03/20 00:15:22;;;;;;;32.10;20.00;;;1.40;99.90;;;;;;4957489;29;20114;-84
2024/03/20 00:17:48;;;;;;;30.58;21.67;;;1.30;99.90;;;;;;4955462;29;20019;-83
2024/03/20 00:20:14;;;;;;;35.58;20.38;;;1.30;99.90;;;;;;4954181;28;20086;-83
2024/03/20 00:22:40;;;;;;;37.40;22.98;;;1.30;99.90;;;;;;4954237;29;20051;-83
2024/03/20 00:25:06;;;;;;;32.45;21.20;;;1.20;99.90;;;;;;4954394;28;20027;-83
2024/03/20 00:27:32;;;;;;;36.75;20.45;;;1.20;99.90;;;;;;4954071;29;20027;-83
2024/03/20 00:29:58;;;;;;;34.92;20.75;;;1.20;99.90;;;;;;4953924;28;20015;-83
2024/03/20 00:32:24;;;;;;;34.05;20.13;;;1.20;99.90;;;;;;4954762;29;20079;-84
2024/03/20 00:34:50;;;;;;;40.05;21.00;;;1.20;99.90;;;;;;4954640;28;20027;-84
2024/03/20 00:37:16;;;;;;;37.53;20.40;;;1.10;99.90;;;;;;4954826;28;20015;-83
2024/03/20 00:39:41;;;;;;;32.95;21.67;;;1.10;99.90;;;;;;4954946;28;20667;-83
2024/03/20 00:42:08;;;;;;;35.75;21.45;;;1.10;99.90;;;;;;4954559;28;20023;-82
2024/03/20 00:44:36;;;;;;;38.30;20.40;;;1.10;99.90;;;;;;4954299;28;20376;-83
2024/03/20 00:47:05;;;;;;;28.38;18.80;;;1.10;99.90;;;;;;4951187;28;20485;-83
2024/03/20 00:49:32;;;;;;;35.45;20.85;;;1.00;99.90;;;;;;4943468;29;20110;-84
2024/03/20 00:51:58;;;;;;;37.83;19.63;;;1.00;99.90;;;;;;4952770;28;20032;-83
2024/03/20 00:54:27;;;;;;;33.17;20.77;;;0.90;99.90;;;;;;4935052;29;20381;-83
2024/03/20 00:56:53;;;;;;;30.40;19.63;;;0.90;99.90;;;;;;4947909;29;20035;-84
2024/03/20 00:59:20;;;;;;;31.17;20.45;;;0.90;99.90;;;;;;4954681;28;20027;-83
2024/03/20 01:01:46;;;;;;;38.38;21.70;;;0.90;99.90;;;;;;4957757;28;20054;-83
2024/03/20 01:04:14;;;;;;;31.50;20.90;;;0.80;99.90;;;;;;4958183;29;20031;-85
2024/03/20 01:06:39;;;;;;;;;;;0.80;99.90;;;;;;4961195;28;20107;-84
2024/03/20 01:09:05;;;;;;;40.72;21.75;;;0.80;99.90;;;;;;4957726;28;20000;-83
2024/03/20 01:11:31;;;;;;;34.72;20.65;;;0.80;99.90;;;;;;4957476;28;20085;-82
2024/03/20 01:13:57;;;;;;;35.38;20.08;;;0.70;99.90;;;;;;4957657;28;20031;-83
2024/03/20 01:16:28;;;;;;;37.22;20.33;;;0.70;99.90;;;;;;4958200;28;20023;-85
2024/03/20 01:18:54;;;;;;;42.67;21.88;;;0.60;99.90;;;;;;4959469;28;20383;-82
2024/03/20 01:21:20;;;;;;;34.90;22.33;;;0.70;99.90;;;;;;4957423;28;20464;-83
2024/03/20 01:23:46;;;;;;;39.00;22.88;;;0.70;99.90;;;;;;4957531;28;20035;-83
2024/03/20 01:26:12;;;;;;;40.08;20.52;;;0.70;99.90;;;;;;4957217;29;20561;-81
2024/03/20 01:28:38;;;;;;;36.15;20.25;;;0.60;99.90;;;;;;4956459;29;20047;-83
2024/03/20 01:31:04;;;;;;;38.08;21.77;;;0.60;99.90;;;;;;4957162;28;20064;-83
2024/03/20 01:33:30;;;;;;;36.08;21.70;;;0.60;99.90;;;;;;4957439;28;20026;-82
2024/03/20 01:35:56;;;;;;;37.15;22.30;;;0.50;99.90;;;;;;4957323;28;20030;-82
2024/03/20 01:38:22;;;;;;;33.80;21.75;;;0.60;99.90;;;;;;4955858;29;20031;-84
2024/03/20 01:40:47;;;;;;;32.50;20.83;;;0.50;99.90;;;;;;4957187;28;20031;-82
2024/03/20 01:43:19;;;;;;;36.10;22.05;;;0.50;99.90;;;;;;4957292;28;20101;-82
2024/03/20 01:45:48;;;;;;;30.65;21.15;;;0.50;99.90;;;;;;4957238;28;20022;-84
2024/03/20 01:48:17;;;;;;;38.38;21.48;;;0.50;99.90;;;;;;4957182;28;20028;-83
2024/03/20 01:50:44;;;;;;;38.35;22.23;;;0.40;99.90;;;;;;4959745;28;20019;-81
2024/03/20 01:53:13;;;;;;;42.13;23.88;;;0.50;99.90;;;;;;4967021;29;20038;-80
2024/03/20 01:55:40;;;;;;;36.92;22.15;;;0.40;99.90;;;;;;4965812;29;20016;-82
2024/03/20 01:58:06;;;;;;;38.33;23.98;;;0.50;99.90;;;;;;4963156;28;20035;-84
2024/03/20 02:00:32;;;;;;;30.83;22.00;;;0.50;99.90;;;;;;4961156;28;20054;-84
2024/03/20 02:03:05;;;;;;;39.35;23.77;;;0.40;99.90;;;;;;4956443;29;20074;-84
2024/03/20 02:05:31;;;;;;;37.20;21.80;;;0.40;99.90;;;;;;4957558;28;20053;-83
2024/03/20 02:07:58;;;;;;;43.25;23.77;;;0.40;99.90;;;;;;4957702;28;20094;-83
2024/03/20 02:10:25;;;;;;;45.60;23.88;;;0.40;99.90;;;;;;4957189;28;20026;-84
2024/03/20 02:13:02;;;;;;;39.00;23.50;;;0.30;99.90;;;;;;4957094;28;20023;-84
2024/03/20 02:15:28;;;;;;;40.22;22.85;;;0.40;99.90;;;;;;4958158;28;20304;-85
2024/03/20 02:17:54;;;;;;;45.00;22.13;;;0.40;99.90;;;;;;4953101;28;20024;-84
2024/03/20 02:20:19;;;;;;;36.15;21.90;;;0.40;99.90;;;;;;4951755;28;20089;-83
2024/03/20 02:22:45;;;;;;;36.00;21.80;;;0.40;99.90;;;;;;4961602;28;20532;-84
2024/03/20 02:25:12;;;;;;;41.38;22.50;;;0.40;99.90;;;;;;4950043;29;20035;-83
2024/03/20 02:27:38;;;;;;;44.80;21.42;;;0.40;99.90;;;;;;4938474;29;20106;-82
2024/03/20 02:30:07;;;;;;;36.25;21.42;;;0.40;99.90;;;;;;4956776;28;20031;-83
2024/03/20 02:32:33;;;;;;;35.35;21.70;;;0.40;99.90;;;;;;4956882;28;20453;-84
2024/03/20 02:34:59;;;;;;;38.08;22.95;;;0.30;99.90;;;;;;4956902;29;20388;-84
2024/03/20 02:37:24;;;;;;;34.90;23.20;;;0.30;99.90;;;;;;4956864;28;20031;-82
2024/03/20 02:39:50;;;;;;;44.92;24.17;;;0.30;99.90;;;;;;4957157;28;20035;-87
2024/03/20 02:42:16;;;;;;;44.20;23.40;;;0.30;99.90;;;;;;4958275;29;20157;-84
2024/03/20 02:44:42;;;;;;;32.95;21.88;;;0.30;99.90;;;;;;4958232;28;20114;-84
2024/03/20 02:47:08;;;;;;;43.50;23.52;;;0.30;99.90;;;;;;4954760;28;20425;-84
2024/03/20 02:49:34;;;;;;;36.85;20.73;;;0.30;99.90;;;;;;4948818;29;20035;-83
2024/03/20 02:51:59;;;;;;;35.72;22.35;;;0.30;99.90;;;;;;4944608;29;20065;-83
2024/03/20 02:54:25;;;;;;;40.20;24.55;;;0.30;99.90;;;;;;4956657;28;20034;-85
2024/03/20 02:56:51;;;;;;;41.67;23.58;;;0.30;99.90;;;;;;4956759;28;20031;-83
2024/03/20 02:59:17;;;;;;;38.25;21.65;;;0.20;99.90;;;;;;4956514;28;20130;-84
2024/03/20 03:01:42;;;;;;;40.70;24.25;;;0.20;99.90;;;;;;4956700;28;20091;-84
2024/03/20 03:04:08;;;;;;;38.17;23.92;;;0.20;99.90;;;;;;4956400;28;20475;-83
2024/03/20 03:06:34;;;;;;;34.28;22.98;;;0.10;99.90;;;;;;4956543;29;20338;-83
2024/03/20 03:09:00;;;;;;;42.03;22.10;;;0.10;99.90;;;;;;4956719;28;20027;-85
2024/03/20 03:11:27;;;;;;;55.08;29.40;;;0.20;99.90;;;;;;4957380;28;20054;-83
2024/03/20 03:13:53;;;;;;;47.22;24.63;;;0.20;99.90;;;;;;4956704;28;20547;-85
2024/03/20 03:16:19;;;;;;;34.08;22.67;;;0.20;99.90;;;;;;4956352;28;20341;-85
2024/03/20 03:18:44;;;;;;;44.60;23.20;;;0.30;99.90;;;;;;4956802;29;20024;-85
2024/03/20 03:21:10;;;;;;;37.08;22.48;;;0.20;99.90;;;;;;4955797;28;20055;-84
2024/03/20 03:23:37;;;;;;;32.25;21.40;;;0.30;99.90;;;;;;4956077;28;20086;-83
2024/03/20 03:26:04;;;;;;;40.85;24.42;;;0.20;99.90;;;;;;4956206;29;20093;-84
2024/03/20 03:28:30;;;;;;;39.63;24.65;;;0.20;99.90;;;;;;4956301;28;20544;-85
2024/03/20 03:30:59;;;;;;;51.60;25.30;;;0.20;99.90;;;;;;4954873;29;20572;-83
2024/03/20 03:33:25;;;;;;;41.67;24.75;;;0.20;99.90;;;;;;4955998;29;20265;-84
2024/03/20 03:35:50;;;;;;;38.70;25.40;;;0.20;99.90;;;;;;4957442;29;20032;-83
2024/03/20 03:38:16;;;;;;;43.80;25.33;;;0.20;99.90;;;;;;4957729;28;20362;-84
2024/03/20 03:40:42;;;;;;;43.30;25.80;;;0.30;99.90;;;;;;4955330;29;20039;-83
2024/03/20 03:43:08;;;;;;;45.97;27.23;;;0.30;99.90;;;;;;4955212;28;20019;-84
2024/03/20 03:45:33;;;;;;;48.72;26.00;;;0.40;99.90;;;;;;4956297;28;20477;-85
2024/03/20 03:47:59;;;;;;;42.47;26.95;;;0.30;99.90;;;;;;4946650;28;20012;-89
2024/03/20 03:50:25;;;;;;;62.65;27.60;;;0.40;99.90;;;;;;4952882;29;20059;-86
2024/03/20 03:52:51;;;;;;;44.47;26.42;;;0.40;99.90;;;;;;4956708;28;20015;-85
2024/03/20 03:55:17;;;;;;;46.70;26.88;;;0.40;99.90;;;;;;4955219;28;20023;-86
2024/03/20 03:57:43;;;;;;;50.92;31.13;;;0.40;99.90;;;;;;4956462;28;20022;-85
2024/03/20 04:00:10;;;;;;;57.15;30.40;;;0.40;99.90;;;;;;4956244;28;20039;-87
2024/03/20 04:02:36;;;;;;;52.40;29.92;;;0.50;99.90;;;;;;4955354;29;20531;-86
2024/03/20 04:05:04;;;;;;;48.15;31.13;;;0.50;99.90;;;;;;4956891;29;20035;-87
2024/03/20 04:07:30;;;;;;;49.78;30.83;;;0.50;99.90;;;;;;4955751;28;20023;-86
2024/03/20 04:09:56;;;;;;;52.63;31.95;;;0.60;99.90;;;;;;4955350;29;20138;-84
2024/03/20 04:12:22;;;;;;;51.42;31.35;;;0.50;99.90;;;;;;4956322;28;20078;-86
2024/03/20 04:14:48;;;;;;;44.95;29.27;;;0.70;99.90;;;;;;4956718;29;20027;-86
2024/03/20 04:17:14;;;;;;;55.45;30.20;;;0.80;99.90;;;;;;4954258;29;20034;-86
2024/03/20 04:19:42;;;;;;;51.80;29.17;;;1.00;99.90;;;;;;4956095;28;20090;-86
2024/03/20 04:22:08;;;;;;;44.25;29.40;;;1.20;99.90;;;;;;4955317;28;20047;-88
2024/03/20 04:24:34;;;;;;;44.03;29.98;;;1.50;99.90;;;;;;4962138;28;20031;-87
2024/03/20 04:26:59;;;;;;;43.47;28.73;;;1.70;99.90;;;;;;4946385;28;20019;-87
2024/03/20 04:29:25;;;;;;;48.72;28.20;;;1.90;99.90;;;;;;4940873;28;20489;-86
2024/03/20 04:31:51;;;;;;;45.17;28.58;;;1.90;99.90;;;;;;4955007;28;20034;-87
2024/03/20 04:34:17;;;;;;;42.45;28.83;;;1.90;99.90;;;;;;4954600;28;20015;-85
2024/03/20 04:36:43;;;;;;;41.45;28.17;;;1.90;99.90;;;;;;4954265;29;20472;-83
2024/03/20 04:39:10;;;;;;;51.53;30.02;;;1.80;99.90;;;;;;4953154;29;20436;-84
2024/03/20 04:41:36;;;;;;;49.42;29.58;;;1.70;99.90;;;;;;4949469;29;20055;-84
2024/03/20 04:44:01;;;;;;;54.22;31.48;;;1.60;99.90;;;;;;4958061;28;20079;-84
2024/03/20 04:46:27;;;;;;;44.35;28.75;;;1.60;99.90;;;;;;4953378;29;20050;-85
2024/03/20 04:48:53;;;;;;;53.83;32.10;;;1.50;99.90;;;;;;4955889;28;20050;-83
2024/03/20 04:51:19;;;;;;;47.72;31.83;;;1.50;99.90;;;;;;4957066;28;20023;-84
2024/03/20 04:53:45;;;;;;;53.08;32.75;;;1.50;99.90;;;;;;4954858;28;20050;-85
2024/03/20 04:56:11;;;;;;;52.08;30.17;;;1.50;99.90;;;;;;4942554;29;20397;-85
2024/03/20 04:58:36;;;;;;;54.17;33.90;;;1.50;99.90;;;;;;4953730;28;20105;-84
2024/03/20 05:01:02;;;;;;;47.78;32.55;;;1.50;99.90;;;;;;4941321;29;20389;-84
2024/03/20 05:03:28;;;;;;;43.28;30.50;;;1.60;99.90;;;;;;4955202;29;20494;-84
2024/03/20 05:05:54;;;;;;;48.22;31.35;;;1.60;99.90;;;;;;4953692;29;20047;-84
2024/03/20 05:08:20;;;;;;;45.50;31.63;;;1.80;99.90;;;;;;4961470;28;20024;-84
2024/03/20 05:10:46;;;;;;;46.58;31.65;;;1.90;99.90;;;;;;4958783;29;20035;-84
2024/03/20 05:13:11;;;;;;;47.85;31.70;;;2.10;99.90;;;;;;4954520;28;20068;-84
2024/03/20 05:15:40;;;;;;;45.25;30.58;;;2.30;99.90;;;;;;4955066;28;20078;-84
2024/03/20 05:18:06;;;;;;;51.97;33.38;;;2.40;99.90;;;;;;4953702;29;20126;-86
2024/03/20 05:20:32;;;;;;;47.50;29.50;;;2.40;99.90;;;;;;4954339;28;20479;-83
2024/03/20 05:22:58;;;;;;;45.95;31.33;;;2.40;99.80;;;;;;4954223;28;20019;-84
2024/03/20 05:25:24;;;;;;;46.60;30.27;;;2.30;99.90;;;;;;4954692;28;20110;-86
2024/03/20 05:27:49;;;;;;;56.92;33.58;;;2.30;99.60;;;;;;4954147;28;20019;-85
2024/03/20 05:30:15;;;;;;;50.50;34.30;;;2.30;99.40;;;;;;4951558;29;20023;-81
2024/03/20 05:32:41;;;;;;;53.90;37.88;;;2.30;99.30;;;;;;4949079;29;20098;-86
2024/03/20 05:35:07;;;;;;;55.95;35.55;;;2.20;99.10;;;;;;4953528;29;20035;-85
2024/03/20 05:37:34;;;;;;;51.20;33.72;;;2.10;99.30;;;;;;4954597;28;20011;-84
2024/03/20 05:39:59;;;;;;;54.38;32.72;;;2.00;99.40;;;;;;4954165;28;20507;-86
2024/03/20 05:42:25;;;;;;;64.03;35.53;;;2.00;99.50;;;;;;4953352;28;20015;-83
2024/03/20 05:44:51;;;;;;;60.30;38.55;;;1.90;99.70;;;;;;4954373;28;20038;-85
2024/03/20 05:47:17;;;;;;;55.53;36.75;;;1.90;99.70;;;;;;4947816;28;20081;-86
2024/03/20 05:49:43;;;;;;;57.00;35.35;;;1.90;99.90;;;;;;4958767;28;20082;-86
2024/03/20 05:52:09;;;;;;;65.57;39.88;;;2.00;99.90;;;;;;4956796;29;20142;-86
2024/03/20 05:54:35;;;;;;;56.55;34.65;;;2.00;99.90;;;;;;4956624;29;20062;-87
2024/03/20 05:57:04;;;;;;;55.83;36.03;;;2.10;99.90;;;;;;4958066;28;20027;-87
2024/03/20 05:59:30;;;;;;;58.05;35.38;;;2.30;99.90;;;;;;4958574;29;20019;-86
2024/03/20 06:01:56;;;;;;;48.35;32.30;;;2.40;99.90;;;;;;4957636;29;20508;-84
2024/03/20 06:04:21;;;;;;;52.05;35.00;;;2.70;99.90;;;;;;4958103;28;20019;-86
2024/03/20 06:06:50;;;;;;;52.45;31.15;;;2.90;99.50;;;;;;4955942;29;20527;-87
2024/03/20 06:09:24;;;;;;;50.30;32.90;;;3.20;99.20;;;;;;4959738;29;20137;-87
2024/03/20 06:11:50;;;;;;;55.25;33.33;;;3.50;98.80;;;;;;4956604;29;20114;-85
2024/03/20 06:14:16;;;;;;;52.95;29.45;;;3.70;97.70;;;;;;4956893;29;20084;-85
2024/03/20 06:16:42;;;;;;;49.65;31.85;;;3.80;96.90;;;;;;4955657;29;20027;-87
2024/03/20 06:19:07;;;;;;;54.05;31.52;;;3.60;96.50;;;;;;4956516;28;20135;-87
2024/03/20 06:21:33;;;;;;;42.33;25.77;;;3.60;96.20;;;;;;4956137;28;20043;-85
2024/03/20 06:23:59;;;;;;;54.38;33.67;;;3.40;96.40;;;;;;4957984;28;20031;-85
2024/03/20 06:26:26;;;;;;;40.45;28.08;;;3.30;96.50;;;;;;4956156;29;20023;-86
2024/03/20 06:29:12;;;;;;;47.90;29.48;;;3.20;96.50;;;;;;4957799;29;20035;-85
2024/03/20 06:31:37;;;;;;;57.05;31.30;;;3.10;96.90;;;;;;4939876;29;20031;-87
2024/03/20 06:34:15;;;;;;;43.50;28.80;;;3.20;97.00;;;;;;4956393;28;20046;-87
2024/03/20 06:36:42;;;;;;;52.22;29.08;;;3.30;96.70;;;;;;4956079;28;20027;-86
2024/03/20 06:39:20;;;;;;;48.30;32.90;;;3.30;96.60;;;;;;4955549;29;20035;-87
2024/03/20 06:41:46;;;;;;;52.42;30.77;;;3.40;96.70;;;;;;4955189;28;20615;-88
2024/03/20 06:44:14;;;;;;;51.17;30.42;;;3.50;96.70;;;;;;4956239;28;20035;-85
2024/03/20 06:46:40;;;;;;;46.80;31.05;;;3.60;96.50;;;;;;4946062;28;20022;-86
2024/03/20 06:49:09;;;;;;;48.22;30.08;;;3.70;96.30;;;;;;4956115;28;20038;-85
2024/03/20 06:51:39;;;;;;;52.58;30.75;;;3.80;96.10;;;;;;4949476;29;20079;-86
2024/03/20 06:54:16;;;;;;;43.88;27.63;;;3.90;95.70;;;;;;4945345;29;20023;-85
2024/03/20 06:56:47;;;;;;;46.33;29.27;;;3.90;95.40;;;;;;4949959;28;20126;-86
2024/03/20 06:59:13;;;;;;;36.88;26.23;;;3.90;95.30;;;;;;4950611;28;20038;-84
2024/03/20 07:01:38;;;;;;;42.85;29.13;;;4.10;95.10;;;;;;4938782;29;20038;-83
2024/03/20 07:04:04;;;;;;;35.67;23.98;;;4.20;94.80;;;;;;4953808;29;20023;-84
2024/03/20 07:06:30;;;;;;;34.35;24.75;;;4.30;94.60;;;;;;4954797;29;20055;-81
2024/03/20 07:08:56;;;;;;;42.60;26.05;;;4.40;94.10;;;;;;4955505;29;20031;-86
2024/03/20 07:11:22;;;;;;;42.33;26.55;;;4.60;94.00;;;;;;4955602;28;20071;-82
2024/03/20 07:13:48;;;;;;;37.28;19.88;;;4.70;93.60;;;;;;4955687;29;20071;-84
2024/03/20 07:16:13;;;;;;;38.97;21.88;;;4.80;92.50;;;;;;4943144;28;20696;-81
2024/03/20 07:22:07;;;;;;;35.78;22.92;;;4.70;91.70;;;;;;4964811;28;20495;-82
2024/03/20 07:24:36;;;;;;;33.13;22.45;;;4.50;91.40;;;;;;4994788;28;20502;-82
2024/03/20 07:27:02;;;;;;;36.70;23.25;;;4.50;91.60;;;;;;4993400;28;20113;-84
2024/03/20 07:29:29;;;;;;;33.78;21.70;;;4.80;91.90;;;;;;4993439;28;20097;-82
2024/03/20 07:31:55;;;;;;;42.17;21.77;;;5.60;92.10;;;;;;4982346;28;20416;-84
2024/03/20 07:34:21;;;;;;;34.08;23.45;;;7.30;91.80;;;;;;4991311;28;20026;-85
2024/03/20 07:36:46;;;;;;;36.10;23.02;;;9.40;90.50;;;;;;4993456;28;20023;-82
2024/03/20 07:39:12;;;;;;;36.22;23.90;;;10.70;80.90;;;;;;4965809;28;20381;-84
2024/03/20 07:41:38;;;;;;;39.28;24.55;;;12.20;76.30;;;;;;4991436;28;20049;-84
2024/03/20 07:44:04;;;;;;;34.33;22.23;;;13.50;69.10;;;;;;4994135;28;20030;-82
2024/03/20 07:46:30;;;;;;;38.35;22.05;;;14.00;65.40;;;;;;4993074;28;20034;-83
2024/03/20 07:48:55;;;;;;;33.33;22.58;;;14.60;62.20;;;;;;4962134;28;20488;-84
2024/03/20 07:51:21;;;;;;;37.13;24.70;;;15.40;60.60;;;;;;4993730;28;20475;-82
2024/03/20 07:53:47;;;;;;;39.33;24.25;;;16.10;57.80;;;;;;4993191;28;20034;-85
2024/03/20 07:56:14;;;;;;;30.30;22.67;;;16.90;55.70;;;;;;4993181;28;20027;-86
2024/03/20 07:58:41;;;;;;;;;;;17.40;53.00;;;;;;4993691;28;20109;-84
2024/03/20 08:01:11;;;;;;;34.47;21.02;;;18.00;56.70;;;;;;4993450;28;20271;-84
2024/03/20 08:03:39;;;;;;;34.45;22.23;;;18.20;50.50;;;;;;4992701;28;20129;-83
2024/03/20 08:06:05;;;;;;;37.40;22.35;;;18.70;49.00;;;;;;4992862;28;20061;-84
2024/03/20 08:08:31;;;;;;;32.43;21.37;;;19.40;47.10;;;;;;4975884;28;20025;-83
2024/03/20 08:10:57;;;;;;;27.33;20.67;;;19.10;46.00;;;;;;4993346;28;20030;-86
2024/03/20 08:13:22;;;;;;;41.75;21.48;;;17.90;46.60;;;;;;4993279;28;20089;-86
2024/03/20 08:15:48;;;;;;;29.02;19.98;;;16.90;47.50;;;;;;4993532;28;20521;-85
2024/03/20 08:18:15;;;;;;;36.20;21.42;;;17.20;47.70;;;;;;4979515;28;20022;-83
2024/03/20 08:20:41;;;;;;;26.97;19.03;;;17.40;47.80;;;;;;4999173;28;20064;-83
2024/03/20 08:23:06;;;;;;;34.90;18.35;;;17.70;47.20;;;;;;5001193;28;20106;-83
2024/03/20 08:25:32;;;;;;;33.88;20.45;;;17.50;45.70;;;;;;4995489;28;20072;-83
2024/03/20 08:27:58;;;;;;;37.10;17.65;;;17.00;46.80;;;;;;4992730;28;20029;-83
2024/03/20 08:30:24;;;;;;;36.83;19.02;;;16.60;47.40;;;;;;4992493;28;20113;-84
2024/03/20 08:32:51;;;;;;;33.72;16.95;;;16.70;47.00;;;;;;4975470;28;20197;-84
2024/03/20 08:35:17;;;;;;;39.05;16.67;;;16.40;46.60;;;;;;4992772;28;20037;-85
2024/03/20 08:37:44;;;;;;;33.42;17.05;;;16.90;47.60;;;;;;4976230;28;20026;-84
2024/03/20 08:40:11;;;;;;;31.65;18.27;;;18.10;46.10;;;;;;4976220;28;20450;-85
2024/03/20 08:42:37;;;;;;;29.85;16.67;;;18.90;44.50;;;;;;4992910;28;20027;-85
2024/03/20 08:45:04;;;;;;;29.15;17.13;;;20.00;43.70;;;;;;4992865;28;20387;-84
2024/03/20 08:47:30;;;;;;;31.85;18.30;;;20.30;41.90;;;;;;4992433;28;20029;-82
2024/03/20 08:49:56;;;;;;;31.67;17.20;;;19.80;42.10;;;;;;4975708;28;20061;-84
2024/03/20 08:52:22;;;;;;;26.38;16.13;;;20.10;42.70;;;;;;4992384;28;20120;-84
2024/03/20 08:54:49;;;;;;;24.20;16.63;;;20.70;41.50;;;;;;4992527;28;20033;-83
2024/03/20 08:57:19;;;;;;;26.80;17.33;;;20.80;40.80;;;;;;4992320;28;20030;-84
2024/03/20 08:59:47;;;;;;;31.45;15.88;;;21.20;40.20;;;;;;4992335;28;20045;-85
2024/03/20 09:02:14;;;;;;;31.25;16.35;;;21.70;39.00;;;;;;4992957;28;20077;-84
2024/03/20 09:04:41;;;;;;;32.50;16.10;;;21.90;38.50;;;;;;4974823;28;20114;-83
2024/03/20 09:07:07;;;;;;;26.50;16.83;;;22.60;38.40;;;;;;4992276;28;20038;-82
2024/03/20 09:09:33;;;;;;;29.20;17.00;;;23.10;37.30;;;;;;4958512;28;20030;-84
2024/03/20 09:12:00;;;;;;;36.63;18.27;;;23.20;36.80;;;;;;4992556;28;20037;-87
2024/03/20 09:14:26;;;;;;;26.07;16.30;;;23.40;37.20;;;;;;4992245;28;20054;-82
2024/03/20 09:16:53;;;;;;;28.65;15.93;;;23.40;36.10;;;;;;4992067;28;20264;-84
2024/03/20 09:19:19;;;;;;;25.67;14.55;;;23.10;35.50;;;;;;4991979;28;20085;-86
2024/03/20 09:21:45;;;;;;;23.17;17.03;;;22.70;35.70;;;;;;4995804;28;20105;-85
2024/03/20 09:24:16;;;;;;;28.08;16.08;;;22.10;36.70;;;;;;4977921;28;20264;-83
2024/03/20 09:26:43;;;;;;;29.15;17.98;;;21.60;36.90;;;;;;4996078;28;20058;-82
2024/03/20 09:29:10;;;;;;;30.15;17.88;;;21.40;37.60;;;;;;4996264;28;20029;-85
2024/03/20 09:31:37;;;;;;;30.05;17.90;;;21.50;37.20;;;;;;4978315;28;20019;-83
2024/03/20 09:34:03;;;;;;;36.20;19.48;;;21.30;37.40;;;;;;4995898;28;20484;-85
2024/03/20 09:36:29;;;;;;;23.83;18.97;;;21.10;37.40;;;;;;4995726;28;20023;-82
2024/03/20 09:38:55;;;;;;;32.45;20.88;;;21.20;37.70;;;;;;4995529;28;20030;-83
2024/03/20 09:41:23;;;;;;;27.30;18.33;;;22.40;37.10;;;;;;4995585;28;20031;-84
2024/03/20 09:43:55;;;;;;;30.27;20.35;;;23.20;35.00;;;;;;4995997;28;20452;-82
2024/03/20 09:46:21;;;;;;;36.10;20.85;;;22.60;36.30;;;;;;4995688;28;20030;-83
2024/03/20 09:48:49;;;;;;;25.13;17.38;;;23.20;35.60;;;;;;4995775;28;20026;-83
2024/03/20 09:51:19;;;;;;;26.88;15.43;;;23.60;34.60;;;;;;4995628;28;20031;-84
2024/03/20 09:53:51;;;;;;;27.67;20.65;;;23.10;33.90;;;;;;4995694;28;20022;-85
2024/03/20 09:56:21;;;;;;;24.23;18.67;;;20.30;36.40;;;;;;4978331;28;20060;-84
2024/03/20 09:58:48;;;;;;;25.65;16.70;;;19.70;38.10;;;;;;4994667;28;20029;-83
2024/03/20 10:01:19;;;;;;;20.13;15.32;;;19.80;38.00;;;;;;4995343;28;20057;-85
2024/03/20 10:03:44;;;;;;;23.00;14.25;;;20.50;37.00;;;;;;4995137;28;20026;-83
2024/03/20 10:06:11;;;;;;;23.48;11.88;;;21.40;35.50;;;;;;4994987;28;20396;-84
2024/03/20 10:08:38;;;;;;;18.80;12.77;;;21.10;34.60;;;;;;4977870;28;20675;-83
2024/03/20 10:11:07;;;;;;;23.15;15.15;;;19.00;35.40;;;;;;4994418;28;20026;-83
2024/03/20 10:13:34;;;;;;;25.83;14.95;;;18.90;36.80;;;;;;4994954;28;20018;-82
2024/03/20 10:16:09;;;;;;;18.00;11.73;;;20.20;35.90;;;;;;4994278;28;20023;-83
2024/03/20 10:18:36;;;;;;;25.23;13.93;;;20.10;34.10;;;;;;4977684;28;20026;-82
2024/03/20 10:21:02;;;;;;;19.00;15.47;;;19.80;35.90;;;;;;4977061;28;20045;-82
2024/03/20 10:23:29;;;;;;;22.37;14.97;;;20.50;35.70;;;;;;4985859;28;20360;-80
2024/03/20 10:25:58;;;;;;;27.35;15.88;;;20.30;35.10;;;;;;4989329;28;20022;-83
2024/03/20 10:28:30;;;;;;;26.23;14.88;;;18.60;36.00;;;;;;4994090;28;20078;-82
2024/03/20 10:31:03;;;;;;;21.92;13.07;;;17.40;37.50;;;;;;4993915;28;20033;-82
2024/03/20 10:33:29;;;;;;;30.13;14.60;;;16.40;37.90;;;;;;4993072;28;20104;-82
2024/03/20 10:35:56;;;;;;;20.17;12.65;;;14.50;40.00;;;;;;4994755;28;20428;-82
2024/03/20 10:38:22;;;;;;;14.35;9.93;;;13.60;40.20;;;;;;4976519;28;20034;-82
2024/03/20 10:40:54;;;;;;;17.92;10.93;;;12.90;40.40;;;;;;4993967;28;20066;-82
2024/03/20 10:43:25;;;;;;;18.63;10.85;;;12.30;41.10;;;;;;4993990;28;20097;-81
2024/03/20 10:45:55;;;;;;;15.27;10.13;;;11.90;42.30;;;;;;4993856;28;20052;-82
2024/03/20 10:48:22;;;;;;;17.98;10.55;;;11.60;42.70;;;;;;4994096;28;20113;-82
2024/03/20 10:50:49;;;;;;;;;;;11.40;43.20;;;;;;4994158;28;20118;-80
2024/03/20 10:53:20;;;;;;;16.15;9.38;;;11.20;43.30;;;;;;4976312;28;19913;-83
2024/03/20 10:55:49;;;;;;;17.48;8.88;;;11.00;43.80;;;;;;4993574;28;20023;-81
2024/03/20 10:58:16;;;;;;;17.08;9.15;;;10.80;44.60;;;;;;4993953;28;20034;-81
2024/03/20 11:00:48;;;;;;;18.73;9.32;;;10.50;45.00;;;;;;4975758;28;20065;-82
2024/03/20 11:03:42;;;;;;;18.35;9.27;;;10.30;45.20;;;;;;4994128;28;20472;-84
2024/03/20 11:06:30;;;;;;;16.55;9.20;;;10.10;45.30;;;;;;4993735;28;20038;-82
2024/03/20 11:08:57;;;;;;;11.55;6.80;;;10.10;45.10;;;;;;4994194;28;20026;-81
2024/03/20 11:11:33;;;;;;;13.77;8.07;;;10.00;44.30;;;;;;4994325;28;20037;-81
2024/03/20 11:14:11;;;;;;;12.90;8.85;;;9.60;44.90;;;;;;4993688;28;20026;-84
2024/03/20 11:16:48;;;;;;;14.57;8.73;;;9.40;46.20;;;;;;4994311;28;20480;-82
2024/03/20 11:19:16;;;;;;;20.63;10.53;;;9.30;46.30;;;;;;4976005;28;20503;-82
2024/03/20 11:21:46;;;;;;;20.17;9.73;;;9.20;47.00;;;;;;4993715;28;20801;-83
2024/03/20 11:24:14;;;;;;;26.20;12.00;;;9.20;47.70;;;;;;4975472;28;20816;-81
2024/03/20 11:26:43;;;;;;;24.33;12.23;;;9.20;48.20;;;;;;4993709;28;20026;-81
2024/03/20 11:29:10;;;;;;;28.23;11.95;;;9.30;48.30;;;;;;4994642;28;20019;-81
2024/03/20 11:31:38;;;;;;;23.60;12.52;;;9.30;48.70;;;;;;4994449;28;20579;-82
2024/03/20 11:34:05;;;;;;;17.83;11.00;;;9.20;48.70;;;;;;5002360;28;20045;-82
2024/03/20 11:36:31;;;;;;;21.85;10.43;;;9.10;48.90;;;;;;4998901;28;20022;-82
2024/03/20 11:38:57;;;;;;;17.05;10.57;;;9.10;48.80;;;;;;4994357;28;20030;-84
2024/03/20 11:41:23;;;;;;;20.67;11.75;;;9.10;49.30;;;;;;4994422;28;20124;-83
2024/03/20 11:43:49;;;;;;;22.00;11.20;;;9.10;49.50;;;;;;4976610;28;20014;-83
2024/03/20 11:46:23;;;;;;;20.50;12.05;;;9.10;49.40;;;;;;4993367;28;20542;-84
2024/03/20 11:48:52;;;;;;;18.20;11.18;;;9.10;49.10;;;;;;4975739;28;20022;-83
2024/03/20 11:51:22;;;;;;;24.63;11.85;;;9.10;49.20;;;;;;4993368;28;20026;-82
2024/03/20 11:53:54;;;;;;;20.08;11.98;;;9.10;49.50;;;;;;4993261;28;20380;-84
2024/03/20 11:56:22;;;;;;;31.30;13.73;;;9.10;49.70;;;;;;4993054;28;20029;-82
2024/03/20 11:58:49;;;;;;;26.40;14.98;;;9.10;50.00;;;;;;4975169;28;20019;-83
2024/03/20 12:01:15;;;;;;;26.50;13.77;;;9.10;50.20;;;;;;4993273;28;20042;-83
2024/03/20 12:03:42;;;;;;;22.40;14.52;;;9.10;50.60;;;;;;4992958;28;20030;-85
2024/03/20 12:06:27;;;;;;;21.03;13.63;;;9.20;51.10;;;;;;4987431;28;20133;-82
2024/03/20 12:09:00;;;;;;;26.50;14.23;;;9.20;51.20;;;;;;4987280;28;20267;-83
2024/03/20 12:11:34;;;;;;;34.50;14.52;;;9.20;51.60;;;;;;4992860;28;20353;-81
2024/03/20 12:14:03;;;;;;;26.95;13.10;;;9.20;50.80;;;;;;4992573;28;20053;-83
2024/03/20 12:16:31;;;;;;;21.55;14.00;;;9.10;51.20;;;;;;4975134;28;20431;-82
2024/03/20 12:18:58;;;;;;;19.60;12.68;;;9.20;51.20;;;;;;4992693;28;20435;-83
2024/03/20 12:21:24;;;;;;;22.30;11.95;;;9.10;51.20;;;;;;4992455;28;20383;-83
2024/03/20 12:23:51;;;;;;;19.35;11.60;;;9.10;51.30;;;;;;4992496;28;20050;-84
2024/03/20 12:26:24;;;;;;;21.85;13.63;;;8.70;51.60;;;;;;4975757;28;20435;-83
2024/03/20 12:28:53;;;;;;;21.48;11.88;;;8.70;52.40;;;;;;4992553;28;20034;-85
2024/03/20 12:31:48;;;;;;;28.95;16.08;;;8.80;52.20;;;;;;4992140;28;20097;-82
2024/03/20 12:34:18;;;;;;;27.33;12.85;;;8.80;52.60;;;;;;4991997;28;20030;-82
2024/03/20 12:36:45;;;;;;;24.83;12.73;;;8.90;52.40;;;;;;4992084;28;20133;-82
2024/03/20 12:39:10;;;;;;;30.80;13.75;;;9.20;52.00;;;;;;4992200;28;20018;-81